Time;durP1;ratioP1;P1;durP2;ratioP2;P2;SDS_P1;SDS_P2;PMS_P1;PMS_P2;Temp;Humidity;BMP_temperature;BMP_pressure;BME280_temperature;BME280_humidity;BME280_pressure;Samples;Min_cycle;Max_cycle;Signal;HPM_P1;HPM_P2
2021/05/25 00:00:09;;;;;;;2.50;1.10;;;;;;;;;;1492364;39;20028;-59
2021/05/25 00:01:10;;;;;;;2.55;1.10;;;;;;;;;;1492883;39;20031;-60
2021/05/25 00:02:11;;;;;;;2.35;1.10;;;;;;;;;;1493093;39;20039;-60
2021/05/25 00:03:14;;;;;;;2.00;1.20;;;;;;;;;;1493022;39;20028;-59
2021/05/25 00:04:15;;;;;;;4.22;1.35;;;;;;;;;;1492895;39;20035;-60
2021/05/25 00:05:19;;;;;;;2.80;1.10;;;;;;;;;;1492879;39;20024;-58
2021/05/25 00:06:19;;;;;;;2.58;1.25;;;;;;;;;;1492880;39;20032;-59
2021/05/25 00:07:21;;;;;;;2.63;1.00;;;;;;;;;;1492859;39;20028;-59
2021/05/25 00:08:23;;;;;;;1.92;1.10;;;;;;;;;;1492926;39;20038;-59
2021/05/25 00:09:24;;;;;;;2.85;1.20;;;;;;;;;;1493065;39;20032;-60
2021/05/25 00:10:45;;;;;;;3.20;1.50;;;;;;;;;;1492381;39;20024;-59
2021/05/25 00:11:46;;;;;;;1.70;1.10;;;;;;;;;;1492522;39;20383;-59
2021/05/25 00:12:52;;;;;;;1.77;0.98;;;;;;;;;;1492825;39;20288;-59
2021/05/25 00:13:53;;;;;;;1.52;1.00;;;;;;;;;;1493022;39;20034;-60
2021/05/25 00:14:54;;;;;;;2.70;1.20;;;;;;;;;;1493057;39;20027;-59
2021/05/25 00:15:56;;;;;;;2.35;1.27;;;;;;;;;;1492930;39;20028;-59
2021/05/25 00:16:57;;;;;;;2.35;1.15;;;;;;;;;;1492810;39;20387;-58
2021/05/25 00:17:58;;;;;;;1.92;1.20;;;;;;;;;;1493054;39;20027;-59
2021/05/25 00:18:59;;;;;;;2.78;1.30;;;;;;;;;;1493033;39;20289;-60
2021/05/25 00:20:00;;;;;;;4.20;1.17;;;;;;;;;;1492841;39;20438;-59
2021/05/25 00:21:02;;;;;;;2.28;1.15;;;;;;;;;;1492954;39;20028;-58
2021/05/25 00:22:03;;;;;;;2.38;1.13;;;;;;;;;;1492744;39;20042;-59
2021/05/25 00:23:04;;;;;;;2.85;1.02;;;;;;;;;;1492853;39;20023;-60
2021/05/25 00:24:06;;;;;;;1.80;1.10;;;;;;;;;;1492843;39;20028;-60
2021/05/25 00:25:09;;;;;;;1.90;1.00;;;;;;;;;;1493044;39;20024;-60
2021/05/25 00:26:10;;;;;;;2.65;1.00;;;;;;;;;;1493071;39;20028;-59
2021/05/25 00:27:12;;;;;;;1.98;1.08;;;;;;;;;;1492951;39;20028;-60
2021/05/25 00:28:13;;;;;;;2.15;1.02;;;;;;;;;;1492981;39;20060;-59
2021/05/25 00:29:14;;;;;;;1.73;1.00;;;;;;;;;;1492551;39;20395;-58
2021/05/25 00:30:18;;;;;;;1.83;0.80;;;;;;;;;;1493002;39;20031;-59
2021/05/25 00:31:20;;;;;;;2.35;1.05;;;;;;;;;;1492598;39;20024;-58
2021/05/25 00:32:21;;;;;;;2.15;1.00;;;;;;;;;;1492905;39;20078;-60
2021/05/25 00:33:22;;;;;;;1.20;0.80;;;;;;;;;;1493063;39;20031;-59
2021/05/25 00:34:23;;;;;;;2.83;1.10;;;;;;;;;;1492875;39;20043;-59
2021/05/25 00:35:26;;;;;;;3.33;1.10;;;;;;;;;;1492988;39;20027;-59
2021/05/25 00:36:28;;;;;;;2.10;1.05;;;;;;;;;;1492956;39;20116;-60
2021/05/25 00:37:29;;;;;;;2.20;1.00;;;;;;;;;;1492814;39;20043;-59
2021/05/25 00:38:31;;;;;;;2.63;1.20;;;;;;;;;;1492755;39;20391;-59
2021/05/25 00:39:32;;;;;;;2.20;0.98;;;;;;;;;;1492892;39;20035;-59
2021/05/25 00:40:34;;;;;;;2.47;1.10;;;;;;;;;;1492747;39;20039;-59
2021/05/25 00:41:36;;;;;;;2.80;1.10;;;;;;;;;;1492868;39;20024;-59
2021/05/25 00:42:37;;;;;;;1.90;1.15;;;;;;;;;;1492947;39;20036;-60
2021/05/25 00:43:38;;;;;;;3.20;0.98;;;;;;;;;;1492725;39;20125;-59
2021/05/25 00:44:40;;;;;;;1.60;0.85;;;;;;;;;;1492947;39;20393;-59
2021/05/25 00:45:41;;;;;;;1.70;0.90;;;;;;;;;;1492793;39;20028;-59
2021/05/25 00:46:43;;;;;;;1.77;0.90;;;;;;;;;;1492245;39;20027;-59
2021/05/25 00:47:45;;;;;;;2.20;1.00;;;;;;;;;;1492197;39;20031;-60
2021/05/25 00:48:47;;;;;;;1.70;1.00;;;;;;;;;;1492916;39;20039;-60
2021/05/25 00:49:47;;;;;;;2.00;1.00;;;;;;;;;;1492932;39;20040;-59
2021/05/25 00:50:49;;;;;;;2.03;1.00;;;;;;;;;;1492782;39;20328;-59
2021/05/25 00:51:50;;;;;;;1.60;0.85;;;;;;;;;;1492704;39;20036;-59
2021/05/25 00:52:53;;;;;;;1.70;1.00;;;;;;;;;;1492229;39;20031;-59
2021/05/25 00:53:54;;;;;;;2.85;1.10;;;;;;;;;;1492523;39;20036;-60
2021/05/25 00:54:55;;;;;;;4.18;1.00;;;;;;;;;;1492886;39;20390;-59
2021/05/25 00:55:56;;;;;;;1.90;0.90;;;;;;;;;;1492700;39;20410;-59
2021/05/25 00:56:58;;;;;;;1.73;1.00;;;;;;;;;;1492920;39;20031;-60
2021/05/25 00:58:02;;;;;;;2.13;1.23;;;;;;;;;;1492236;39;20034;-60
2021/05/25 00:59:03;;;;;;;2.92;1.05;;;;;;;;;;1492467;39;20028;-60
2021/05/25 01:00:07;;;;;;;1.60;1.10;;;;;;;;;;1492871;39;20043;-60
2021/05/25 01:01:08;;;;;;;2.53;1.10;;;;;;;;;;1492923;39;20044;-59
2021/05/25 01:02:10;;;;;;;2.28;1.00;;;;;;;;;;1492728;39;20379;-60
2021/05/25 01:03:14;;;;;;;1.70;0.90;;;;;;;;;;1492857;39;20036;-59
2021/05/25 01:04:15;;;;;;;1.77;0.90;;;;;;;;;;1492806;39;20268;-60
2021/05/25 01:05:16;;;;;;;1.83;0.90;;;;;;;;;;1492714;39;20387;-59
2021/05/25 01:06:17;;;;;;;2.28;1.10;;;;;;;;;;1492831;39;20034;-59
2021/05/25 01:07:19;;;;;;;1.88;0.82;;;;;;;;;;1492906;39;20418;-60
2021/05/25 01:08:21;;;;;;;3.00;1.20;;;;;;;;;;1492876;39;20024;-60
2021/05/25 01:09:22;;;;;;;2.53;1.20;;;;;;;;;;1492901;39;20032;-59
2021/05/25 01:10:28;;;;;;;2.13;0.93;;;;;;;;;;1492663;39;20054;-59
2021/05/25 01:11:29;;;;;;;1.55;1.05;;;;;;;;;;1492653;39;20320;-59
2021/05/25 01:12:32;;;;;;;2.45;1.20;;;;;;;;;;1492694;39;20391;-59
2021/05/25 01:13:41;;;;;;;1.73;0.80;;;;;;;;;;1492794;39;20028;-60
2021/05/25 01:14:46;;;;;;;2.55;0.93;;;;;;;;;;1492656;39;20035;-59
2021/05/25 01:15:48;;;;;;;1.50;0.90;;;;;;;;;;1492351;39;20050;-59
2021/05/25 01:16:49;;;;;;;3.03;1.05;;;;;;;;;;1492212;39;20391;-59
2021/05/25 01:17:54;;;;;;;3.58;1.08;;;;;;;;;;1492816;39;20027;-60
2021/05/25 01:18:56;;;;;;;1.83;0.93;;;;;;;;;;1492848;39;20032;-60
2021/05/25 01:19:58;;;;;;;2.00;1.00;;;;;;;;;;1492664;39;20031;-59
2021/05/25 01:20:59;;;;;;;1.75;0.90;;;;;;;;;;1492621;39;20028;-59
2021/05/25 01:22:02;;;;;;;1.98;1.00;;;;;;;;;;1492769;39;20043;-60
2021/05/25 01:23:03;;;;;;;1.92;0.90;;;;;;;;;;1492819;39;20028;-59
2021/05/25 01:24:05;;;;;;;2.53;1.10;;;;;;;;;;1492707;39;20131;-60
2021/05/25 01:25:11;;;;;;;3.67;1.00;;;;;;;;;;1492835;39;20031;-60
2021/05/25 01:26:15;;;;;;;4.85;1.10;;;;;;;;;;1492782;39;20036;-60
2021/05/25 01:27:16;;;;;;;4.05;1.02;;;;;;;;;;1492813;39;20039;-60
2021/05/25 01:28:20;;;;;;;2.03;0.80;;;;;;;;;;1492572;39;20035;-59
2021/05/25 01:29:21;;;;;;;2.20;1.00;;;;;;;;;;1492588;39;20031;-59
2021/05/25 01:30:24;;;;;;;1.90;0.93;;;;;;;;;;1492615;39;20031;-59
2021/05/25 01:31:25;;;;;;;3.08;0.90;;;;;;;;;;1492728;39;20028;-59
2021/05/25 01:32:26;;;;;;;3.33;1.13;;;;;;;;;;1492575;39;20387;-60
2021/05/25 01:33:29;;;;;;;2.53;0.95;;;;;;;;;;1492577;39;20132;-60
2021/05/25 01:34:31;;;;;;;3.30;1.00;;;;;;;;;;1492601;39;20307;-60
2021/05/25 01:35:33;;;;;;;1.88;1.00;;;;;;;;;;1492163;39;20036;-59
2021/05/25 01:36:34;;;;;;;2.28;1.08;;;;;;;;;;1492403;39;20024;-60
2021/05/25 01:37:36;;;;;;;1.38;0.85;;;;;;;;;;1492733;39;20050;-60
2021/05/25 01:38:38;;;;;;;3.08;1.05;;;;;;;;;;1492749;39;20035;-59
2021/05/25 01:39:39;;;;;;;3.30;0.90;;;;;;;;;;1492743;39;20031;-60
2021/05/25 01:40:40;;;;;;;3.15;1.10;;;;;;;;;;1492665;39;20028;-59
2021/05/25 01:41:42;;;;;;;2.60;0.90;;;;;;;;;;1493070;39;20054;-59
2021/05/25 01:42:43;;;;;;;2.08;1.00;;;;;;;;;;1493433;39;20031;-61
2021/05/25 01:43:44;;;;;;;2.03;0.80;;;;;;;;;;1493233;39;20372;-59
2021/05/25 01:44:46;;;;;;;2.80;1.05;;;;;;;;;;1493218;39;20031;-60
2021/05/25 01:45:47;;;;;;;1.75;0.70;;;;;;;;;;1492723;39;20387;-60
2021/05/25 01:46:50;;;;;;;2.33;1.00;;;;;;;;;;1492953;39;20028;-59
2021/05/25 01:47:51;;;;;;;1.80;1.00;;;;;;;;;;1493200;39;20028;-60
2021/05/25 01:48:53;;;;;;;2.95;1.08;;;;;;;;;;1493397;39;20034;-60
2021/05/25 01:50:10;;;;;;;1.67;1.00;;;;;;;;;;1493420;39;20102;-60
2021/05/25 01:51:12;;;;;;;2.75;1.00;;;;;;;;;;1493144;39;20032;-60
2021/05/25 01:52:13;;;;;;;1.90;1.10;;;;;;;;;;1493378;39;20035;-59
2021/05/25 01:53:17;;;;;;;2.17;0.82;;;;;;;;;;1493331;39;20024;-60
2021/05/25 01:54:18;;;;;;;2.40;0.80;;;;;;;;;;1493253;39;20027;-60
2021/05/25 01:55:25;;;;;;;2.00;0.98;;;;;;;;;;1493193;39;20276;-60
2021/05/25 01:56:26;;;;;;;1.77;0.93;;;;;;;;;;1493383;39;20058;-60
2021/05/25 01:57:27;;;;;;;2.97;0.98;;;;;;;;;;1493215;39;20033;-59
2021/05/25 01:58:32;;;;;;;3.40;0.93;;;;;;;;;;1493320;39;20027;-60
2021/05/25 01:59:33;;;;;;;2.22;0.90;;;;;;;;;;1493446;39;20039;-60
2021/05/25 02:00:36;;;;;;;1.88;0.93;;;;;;;;;;1493456;39;20020;-59
2021/05/25 02:01:38;;;;;;;2.08;0.90;;;;;;;;;;1493150;39;20028;-61
2021/05/25 02:02:39;;;;;;;2.10;0.93;;;;;;;;;;1493361;39;20027;-60
2021/05/25 02:03:41;;;;;;;2.17;0.80;;;;;;;;;;1493286;39;20112;-59
2021/05/25 02:04:42;;;;;;;2.40;1.02;;;;;;;;;;1493362;39;20035;-59
2021/05/25 02:05:45;;;;;;;2.22;0.95;;;;;;;;;;1493487;39;20031;-60
2021/05/25 02:06:46;;;;;;;2.58;0.85;;;;;;;;;;1493218;39;20024;-60
2021/05/25 02:07:49;;;;;;;1.85;0.80;;;;;;;;;;1493162;39;20028;-59
2021/05/25 02:08:51;;;;;;;2.20;1.10;;;;;;;;;;1493251;39;20040;-59
2021/05/25 02:09:52;;;;;;;3.63;0.90;;;;;;;;;;1493184;39;20024;-59
2021/05/25 02:10:55;;;;;;;3.08;0.98;;;;;;;;;;1493202;39;20028;-60
2021/05/25 02:11:56;;;;;;;1.98;0.80;;;;;;;;;;1493145;39;20387;-59
2021/05/25 02:13:01;;;;;;;3.95;1.00;;;;;;;;;;1493175;39;20028;-60
2021/05/25 02:14:02;;;;;;;2.90;1.00;;;;;;;;;;1493149;39;20395;-59
2021/05/25 02:15:04;;;;;;;2.63;0.90;;;;;;;;;;1493367;39;20032;-60
2021/05/25 02:16:07;;;;;;;3.97;1.20;;;;;;;;;;1493358;39;20035;-60
2021/05/25 02:17:09;;;;;;;2.38;0.90;;;;;;;;;;1493246;39;20291;-59
2021/05/25 02:18:13;;;;;;;2.08;0.82;;;;;;;;;;1493413;39;20024;-60
2021/05/25 02:19:15;;;;;;;2.22;0.85;;;;;;;;;;1493210;39;20028;-60
2021/05/25 02:20:16;;;;;;;2.88;0.82;;;;;;;;;;1493299;39;20070;-60
2021/05/25 02:21:18;;;;;;;8.38;1.08;;;;;;;;;;1493077;39;20449;-60
2021/05/25 02:22:20;;;;;;;3.00;0.80;;;;;;;;;;1493137;39;20081;-60
2021/05/25 02:23:20;;;;;;;1.45;0.70;;;;;;;;;;1493255;39;20383;-60
2021/05/25 02:24:23;;;;;;;2.78;0.90;;;;;;;;;;1493103;39;20086;-60
2021/05/25 02:25:24;;;;;;;3.30;1.02;;;;;;;;;;1493182;39;20024;-60
2021/05/25 02:26:25;;;;;;;2.85;0.82;;;;;;;;;;1493115;39;20040;-59
2021/05/25 02:27:26;;;;;;;3.17;1.00;;;;;;;;;;1493134;39;20311;-60
2021/05/25 02:28:27;;;;;;;2.45;0.90;;;;;;;;;;1493156;39;20038;-60
2021/05/25 02:29:28;;;;;;;3.20;1.08;;;;;;;;;;1493292;39;20028;-60
2021/05/25 02:30:30;;;;;;;2.58;0.82;;;;;;;;;;1493341;39;20051;-60
2021/05/25 02:31:31;;;;;;;2.65;0.88;;;;;;;;;;1493264;39;20035;-59
2021/05/25 02:32:32;;;;;;;3.40;1.00;;;;;;;;;;1493172;39;20046;-59
2021/05/25 02:33:34;;;;;;;3.05;0.93;;;;;;;;;;1493330;39;20112;-61
2021/05/25 02:34:36;;;;;;;2.35;1.00;;;;;;;;;;1493154;39;20040;-60
2021/05/25 02:35:37;;;;;;;2.42;0.95;;;;;;;;;;1493324;39;20035;-60
2021/05/25 02:36:40;;;;;;;4.43;1.20;;;;;;;;;;1493147;39;20030;-60
2021/05/25 02:37:41;;;;;;;2.42;1.08;;;;;;;;;;1493093;39;20090;-60
2021/05/25 02:38:42;;;;;;;2.58;1.00;;;;;;;;;;1493267;39;20330;-60
2021/05/25 02:39:44;;;;;;;5.55;1.10;;;;;;;;;;1493018;39;20039;-59
2021/05/25 02:40:47;;;;;;;4.18;1.15;;;;;;;;;;1493302;39;20068;-60
2021/05/25 02:41:47;;;;;;;3.22;1.00;;;;;;;;;;1493100;39;20035;-60
2021/05/25 02:42:49;;;;;;;2.40;0.90;;;;;;;;;;1493291;39;20039;-61
2021/05/25 02:43:50;;;;;;;3.70;1.00;;;;;;;;;;1493106;39;20032;-59
2021/05/25 02:44:52;;;;;;;2.00;0.95;;;;;;;;;;1493268;39;20032;-59
2021/05/25 02:45:53;;;;;;;2.00;0.85;;;;;;;;;;1493259;39;20044;-60
2021/05/25 02:46:55;;;;;;;2.58;1.00;;;;;;;;;;1493203;39;20043;-61
2021/05/25 02:47:56;;;;;;;2.00;0.93;;;;;;;;;;1493315;39;20039;-59
2021/05/25 02:48:58;;;;;;;2.58;1.00;;;;;;;;;;1493100;39;20112;-60
2021/05/25 02:50:06;;;;;;;3.20;1.10;;;;;;;;;;1493313;39;20038;-60
2021/05/25 02:51:08;;;;;;;2.78;1.23;;;;;;;;;;1493293;39;20040;-59
2021/05/25 02:52:09;;;;;;;3.45;0.93;;;;;;;;;;1493084;39;20028;-60
2021/05/25 02:53:11;;;;;;;1.75;1.02;;;;;;;;;;1493077;39;20280;-60
2021/05/25 02:54:12;;;;;;;2.38;0.80;;;;;;;;;;1493253;39;20023;-59
2021/05/25 02:55:16;;;;;;;2.45;0.80;;;;;;;;;;1493047;39;20032;-60
2021/05/25 02:56:17;;;;;;;3.00;1.02;;;;;;;;;;1493030;39;20027;-60
2021/05/25 02:57:18;;;;;;;3.38;1.05;;;;;;;;;;1493243;39;20112;-60
2021/05/25 02:58:19;;;;;;;3.60;1.00;;;;;;;;;;1493198;39;20032;-60
2021/05/25 02:59:20;;;;;;;6.05;1.20;;;;;;;;;;1493325;39;20034;-60
2021/05/25 03:00:23;;;;;;;5.68;1.17;;;;;;;;;;1493034;39;20031;-60
2021/05/25 03:01:24;;;;;;;5.03;1.10;;;;;;;;;;1493133;39;20032;-60
2021/05/25 03:02:26;;;;;;;4.43;1.10;;;;;;;;;;1493215;39;20036;-60
2021/05/25 03:03:27;;;;;;;3.30;1.10;;;;;;;;;;1493030;39;20394;-60
2021/05/25 03:04:28;;;;;;;3.17;1.00;;;;;;;;;;1493056;39;20113;-60
2021/05/25 03:05:30;;;;;;;2.63;1.08;;;;;;;;;;1493176;39;20036;-60
2021/05/25 03:06:31;;;;;;;3.25;0.90;;;;;;;;;;1493210;39;20035;-59
2021/05/25 03:07:32;;;;;;;4.35;1.20;;;;;;;;;;1493017;39;20032;-60
2021/05/25 03:08:33;;;;;;;2.65;1.00;;;;;;;;;;1493029;39;20391;-60
2021/05/25 03:09:34;;;;;;;3.13;1.02;;;;;;;;;;1493270;39;20027;-60
2021/05/25 03:10:38;;;;;;;2.83;1.10;;;;;;;;;;1493219;39;20019;-59
2021/05/25 03:11:40;;;;;;;3.75;1.30;;;;;;;;;;1492945;39;20413;-59
2021/05/25 03:12:41;;;;;;;5.22;1.00;;;;;;;;;;1493120;39;20020;-60
2021/05/25 03:13:42;;;;;;;3.75;0.95;;;;;;;;;;1493071;39;20384;-60
2021/05/25 03:14:44;;;;;;;5.20;1.70;;;;;;;;;;1493165;39;20031;-60
2021/05/25 03:15:47;;;;;;;3.38;1.00;;;;;;;;;;1493239;39;20093;-60
2021/05/25 03:16:47;;;;;;;4.90;1.13;;;;;;;;;;1492998;39;20040;-60
2021/05/25 03:17:49;;;;;;;3.15;0.98;;;;;;;;;;1493170;39;20032;-59
2021/05/25 03:18:50;;;;;;;2.58;1.17;;;;;;;;;;1493007;39;20332;-60
2021/05/25 03:19:52;;;;;;;3.67;1.00;;;;;;;;;;1493138;39;20035;-59
2021/05/25 03:20:52;;;;;;;5.72;1.10;;;;;;;;;;1492954;39;20354;-61
2021/05/25 03:21:54;;;;;;;3.92;1.23;;;;;;;;;;1492560;39;20047;-60
2021/05/25 03:22:55;;;;;;;2.33;1.00;;;;;;;;;;1492695;39;20038;-60
2021/05/25 03:23:56;;;;;;;2.38;1.10;;;;;;;;;;1492996;39;20390;-60
2021/05/25 03:24:57;;;;;;;3.47;1.02;;;;;;;;;;1492970;39;20295;-60
2021/05/25 03:26:01;;;;;;;2.65;1.23;;;;;;;;;;1493003;39;20031;-60
2021/05/25 03:27:02;;;;;;;3.58;1.00;;;;;;;;;;1492950;39;20088;-59
2021/05/25 03:28:03;;;;;;;3.63;1.30;;;;;;;;;;1492936;39;20028;-60
2021/05/25 03:29:04;;;;;;;4.88;1.10;;;;;;;;;;1493014;39;20030;-59
2021/05/25 03:30:08;;;;;;;2.78;1.13;;;;;;;;;;1493188;39;20023;-59
2021/05/25 03:31:09;;;;;;;2.30;0.90;;;;;;;;;;1492976;39;20076;-60
2021/05/25 03:32:10;;;;;;;4.68;1.30;;;;;;;;;;1493119;39;20027;-59
2021/05/25 03:33:11;;;;;;;1.60;0.90;;;;;;;;;;1492975;39;20024;-61
2021/05/25 03:34:13;;;;;;;5.95;1.73;;;;;;;;;;1492953;39;20023;-60
2021/05/25 03:35:16;;;;;;;2.72;1.08;;;;;;;;;;1493152;39;20028;-60
2021/05/25 03:36:18;;;;;;;3.30;1.20;;;;;;;;;;1492962;39;20034;-59
2021/05/25 03:37:18;;;;;;;4.85;1.20;;;;;;;;;;1492936;39;20414;-60
2021/05/25 03:38:20;;;;;;;5.45;1.50;;;;;;;;;;1493185;39;20086;-60
2021/05/25 03:39:22;;;;;;;4.28;1.10;;;;;;;;;;1493055;39;20024;-60
2021/05/25 03:40:24;;;;;;;3.47;1.50;;;;;;;;;;1493123;39;20023;-59
2021/05/25 03:41:26;;;;;;;4.68;1.13;;;;;;;;;;1492839;39;20034;-60
2021/05/25 03:42:27;;;;;;;2.45;1.00;;;;;;;;;;1493130;39;20032;-61
2021/05/25 03:43:28;;;;;;;4.18;1.25;;;;;;;;;;1492955;39;20359;-60
2021/05/25 03:44:29;;;;;;;4.07;1.10;;;;;;;;;;1492920;39;20031;-59
2021/05/25 03:45:31;;;;;;;2.25;1.02;;;;;;;;;;1493005;39;20028;-60
2021/05/25 03:46:32;;;;;;;4.72;1.50;;;;;;;;;;1493135;39;20092;-60
2021/05/25 03:47:33;;;;;;;2.83;1.10;;;;;;;;;;1492912;39;20024;-60
2021/05/25 03:48:35;;;;;;;3.25;1.20;;;;;;;;;;1493144;39;20024;-59
2021/05/25 03:49:35;;;;;;;3.53;1.27;;;;;;;;;;1493220;39;20023;-60
2021/05/25 03:50:37;;;;;;;4.07;1.15;;;;;;;;;;1492925;39;20039;-59
2021/05/25 03:51:38;;;;;;;3.53;1.15;;;;;;;;;;1492885;39;20480;-60
2021/05/25 03:52:41;;;;;;;4.63;1.33;;;;;;;;;;1493078;39;20108;-59
2021/05/25 03:53:42;;;;;;;3.88;1.08;;;;;;;;;;1493112;39;20060;-60
2021/05/25 03:54:49;;;;;;;5.05;1.33;;;;;;;;;;1492943;39;20028;-60
2021/05/25 03:55:53;;;;;;;2.97;1.00;;;;;;;;;;1492887;39;20036;-60
2021/05/25 03:56:55;;;;;;;3.80;1.42;;;;;;;;;;1492926;39;20395;-59
2021/05/25 03:59:15;;;;;;;2.72;1.15;;;;;;;;;;1492915;39;20042;-59
2021/05/25 04:00:17;;;;;;;4.25;1.02;;;;;;;;;;1492837;39;20024;-59
2021/05/25 04:01:20;;;;;;;4.80;1.13;;;;;;;;;;1492901;39;20024;-61
2021/05/25 04:02:21;;;;;;;2.95;0.95;;;;;;;;;;1493140;39;20028;-60
2021/05/25 04:03:23;;;;;;;2.65;1.10;;;;;;;;;;1492894;39;20334;-59
2021/05/25 04:04:24;;;;;;;3.38;1.13;;;;;;;;;;1492528;39;20467;-59
2021/05/25 04:05:25;;;;;;;5.18;1.10;;;;;;;;;;1492906;39;20036;-60
2021/05/25 04:06:26;;;;;;;5.90;1.20;;;;;;;;;;1492932;39;20035;-59
2021/05/25 04:07:27;;;;;;;6.57;1.20;;;;;;;;;;1493184;39;20031;-59
2021/05/25 04:08:29;;;;;;;4.30;1.10;;;;;;;;;;1492834;39;20484;-59
2021/05/25 04:09:30;;;;;;;2.63;1.10;;;;;;;;;;1492896;39;20028;-58
2021/05/25 04:10:31;;;;;;;3.45;1.30;;;;;;;;;;1492909;39;20028;-59
2021/05/25 04:11:32;;;;;;;3.75;1.20;;;;;;;;;;1492957;39;20035;-59
2021/05/25 04:12:34;;;;;;;6.00;1.30;;;;;;;;;;1492879;39;20062;-59
2021/05/25 04:13:35;;;;;;;5.18;1.35;;;;;;;;;;1493011;39;20054;-59
2021/05/25 04:14:36;;;;;;;3.70;1.40;;;;;;;;;;1493045;39;20038;-59
2021/05/25 04:15:38;;;;;;;2.25;1.13;;;;;;;;;;1492839;39;20051;-59
2021/05/25 04:16:40;;;;;;;4.20;1.40;;;;;;;;;;1492914;39;20035;-59
2021/05/25 04:17:42;;;;;;;4.00;1.30;;;;;;;;;;1492841;39;20468;-59
2021/05/25 04:18:43;;;;;;;3.13;1.20;;;;;;;;;;1492844;39;20332;-59
2021/05/25 04:19:44;;;;;;;2.55;1.30;;;;;;;;;;1492974;39;20093;-59
2021/05/25 04:20:45;;;;;;;2.38;1.00;;;;;;;;;;1492948;39;20035;-59
2021/05/25 04:21:47;;;;;;;3.20;1.20;;;;;;;;;;1492757;39;20036;-59
2021/05/25 04:22:49;;;;;;;4.72;1.65;;;;;;;;;;1493009;39;20152;-59
2021/05/25 04:23:50;;;;;;;2.17;1.35;;;;;;;;;;1492928;39;20028;-59
2021/05/25 04:24:51;;;;;;;3.72;1.20;;;;;;;;;;1492842;39;20035;-59
2021/05/25 04:25:53;;;;;;;3.75;1.20;;;;;;;;;;1492801;39;20028;-59
2021/05/25 04:26:54;;;;;;;4.20;1.20;;;;;;;;;;1493009;39;20030;-59
2021/05/25 04:27:56;;;;;;;4.05;1.45;;;;;;;;;;1492959;39;20035;-59
2021/05/25 04:28:57;;;;;;;4.32;1.05;;;;;;;;;;1493002;39;20047;-59
2021/05/25 04:29:58;;;;;;;2.75;1.13;;;;;;;;;;1492410;39;20040;-59
2021/05/25 04:30:59;;;;;;;4.55;1.20;;;;;;;;;;1492506;39;20031;-59
2021/05/25 04:32:01;;;;;;;2.40;1.02;;;;;;;;;;1492774;39;20319;-59
2021/05/25 04:33:04;;;;;;;4.65;1.38;;;;;;;;;;1492983;39;20034;-59
2021/05/25 04:34:05;;;;;;;2.67;1.30;;;;;;;;;;1492796;39;20306;-60
2021/05/25 04:35:07;;;;;;;3.58;1.15;;;;;;;;;;1493013;39;20039;-59
2021/05/25 04:36:09;;;;;;;6.80;1.20;;;;;;;;;;1493001;39;20038;-59
2021/05/25 04:37:10;;;;;;;2.75;1.00;;;;;;;;;;1492900;39;20024;-61
2021/05/25 04:38:12;;;;;;;3.85;1.20;;;;;;;;;;1493002;39;20020;-59
2021/05/25 04:39:13;;;;;;;3.85;1.40;;;;;;;;;;1492980;39;20032;-59
2021/05/25 04:40:15;;;;;;;4.55;1.52;;;;;;;;;;1492763;39;20032;-59
2021/05/25 04:41:15;;;;;;;2.85;1.10;;;;;;;;;;1492919;39;20032;-61
2021/05/25 04:42:17;;;;;;;3.65;1.13;;;;;;;;;;1492956;39;20039;-60
2021/05/25 04:43:19;;;;;;;4.45;1.33;;;;;;;;;;1492774;39;20379;-59
2021/05/25 04:44:20;;;;;;;2.58;1.02;;;;;;;;;;1492940;39;20035;-59
2021/05/25 04:45:21;;;;;;;4.03;1.15;;;;;;;;;;1492802;39;20027;-60
2021/05/25 04:46:22;;;;;;;5.05;1.20;;;;;;;;;;1492755;39;20023;-60
2021/05/25 04:47:24;;;;;;;4.07;1.20;;;;;;;;;;1493017;39;20024;-60
2021/05/25 04:48:24;;;;;;;4.10;1.20;;;;;;;;;;1492901;39;20024;-59
2021/05/25 04:49:26;;;;;;;2.17;1.00;;;;;;;;;;1493031;39;20039;-60
2021/05/25 04:50:28;;;;;;;2.80;1.30;;;;;;;;;;1492922;39;20040;-60
2021/05/25 04:51:29;;;;;;;2.38;1.10;;;;;;;;;;1492694;39;20036;-59
2021/05/25 04:52:31;;;;;;;3.15;1.10;;;;;;;;;;1492905;39;20036;-59
2021/05/25 04:53:32;;;;;;;3.05;1.15;;;;;;;;;;1492803;39;20283;-60
2021/05/25 04:54:35;;;;;;;4.57;1.20;;;;;;;;;;1492721;39;20410;-61
2021/05/25 04:55:36;;;;;;;4.90;1.15;;;;;;;;;;1492855;39;20054;-61
2021/05/25 04:56:39;;;;;;;2.17;0.98;;;;;;;;;;1493005;39;20043;-60
2021/05/25 04:57:41;;;;;;;2.20;0.90;;;;;;;;;;1492887;39;20024;-61
2021/05/25 04:58:43;;;;;;;3.13;1.10;;;;;;;;;;1492753;39;20480;-60
2021/05/25 04:59:44;;;;;;;3.10;1.63;;;;;;;;;;1492713;39;20296;-60
2021/05/25 05:00:45;;;;;;;3.60;1.33;;;;;;;;;;1492671;39;20035;-59
2021/05/25 05:01:46;;;;;;;3.92;1.10;;;;;;;;;;1492829;39;20031;-60
2021/05/25 05:02:48;;;;;;;2.65;1.20;;;;;;;;;;1492679;39;20116;-60
2021/05/25 05:03:49;;;;;;;3.97;1.10;;;;;;;;;;1492693;39;20391;-60
2021/05/25 05:04:50;;;;;;;2.92;0.90;;;;;;;;;;1492712;39;20040;-59
2021/05/25 05:05:51;;;;;;;4.32;1.25;;;;;;;;;;1492904;39;20036;-60
2021/05/25 05:06:52;;;;;;;3.92;1.00;;;;;;;;;;1492686;39;20027;-60
2021/05/25 05:07:53;;;;;;;2.40;1.00;;;;;;;;;;1492925;39;20034;-60
2021/05/25 05:08:54;;;;;;;4.75;1.02;;;;;;;;;;1492701;39;20058;-59
2021/05/25 05:09:55;;;;;;;2.83;0.90;;;;;;;;;;1492899;39;20063;-60
2021/05/25 05:10:57;;;;;;;4.38;1.20;;;;;;;;;;1492687;39;20054;-60
2021/05/25 05:11:58;;;;;;;5.18;1.20;;;;;;;;;;1492615;39;20042;-60
2021/05/25 05:12:59;;;;;;;3.05;0.90;;;;;;;;;;1492883;39;20067;-60
2021/05/25 05:14:01;;;;;;;4.95;1.00;;;;;;;;;;1492692;39;20414;-60
2021/05/25 05:15:04;;;;;;;2.80;0.95;;;;;;;;;;1492907;39;20080;-60
2021/05/25 05:16:05;;;;;;;2.90;1.08;;;;;;;;;;1493503;39;20032;-61
2021/05/25 05:17:06;;;;;;;3.22;1.00;;;;;;;;;;1493462;39;20287;-59
2021/05/25 05:18:07;;;;;;;3.97;1.00;;;;;;;;;;1493316;39;20399;-60
2021/05/25 05:19:08;;;;;;;2.35;1.08;;;;;;;;;;1493344;39;20043;-59
2021/05/25 05:20:11;;;;;;;5.15;1.10;;;;;;;;;;1493273;39;20030;-60
2021/05/25 05:21:12;;;;;;;2.55;1.00;;;;;;;;;;1492742;39;20303;-60
2021/05/25 05:22:13;;;;;;;5.65;1.08;;;;;;;;;;1493020;39;20035;-60
2021/05/25 05:23:14;;;;;;;5.20;1.10;;;;;;;;;;1493468;39;20028;-60
2021/05/25 05:24:16;;;;;;;5.45;1.00;;;;;;;;;;1493499;39;20027;-61
2021/05/25 05:25:17;;;;;;;2.95;0.90;;;;;;;;;;1493278;39;20410;-60
2021/05/25 05:26:18;;;;;;;4.43;1.23;;;;;;;;;;1493469;39;20038;-60
2021/05/25 05:27:19;;;;;;;3.20;0.80;;;;;;;;;;1493524;39;20028;-60
2021/05/25 05:28:20;;;;;;;2.33;1.00;;;;;;;;;;1493289;39;20028;-61
2021/05/25 05:29:22;;;;;;;3.00;0.90;;;;;;;;;;1493263;39;20042;-61
2021/05/25 05:30:23;;;;;;;4.20;1.35;;;;;;;;;;1493446;39;20031;-61
2021/05/25 05:31:24;;;;;;;3.28;0.90;;;;;;;;;;1493374;39;20024;-59
2021/05/25 05:32:25;;;;;;;2.65;0.85;;;;;;;;;;1493276;39;20035;-59
2021/05/25 05:33:27;;;;;;;3.83;1.20;;;;;;;;;;1493274;39;20036;-60
2021/05/25 05:34:28;;;;;;;3.10;1.15;;;;;;;;;;1493277;39;20036;-60
2021/05/25 05:35:30;;;;;;;4.10;1.00;;;;;;;;;;1493262;39;20024;-60
2021/05/25 05:36:31;;;;;;;5.20;1.00;;;;;;;;;;1493272;39;20294;-60
2021/05/25 05:37:32;;;;;;;4.30;1.10;;;;;;;;;;1493449;39;20035;-61
2021/05/25 05:38:33;;;;;;;2.55;0.80;;;;;;;;;;1493304;39;20039;-60
2021/05/25 05:39:34;;;;;;;3.35;1.00;;;;;;;;;;1493425;39;20039;-61
2021/05/25 05:40:35;;;;;;;6.00;1.30;;;;;;;;;;1493386;39;20024;-60
2021/05/25 05:41:36;;;;;;;4.43;1.00;;;;;;;;;;1493391;39;20043;-61
2021/05/25 05:42:37;;;;;;;3.08;0.90;;;;;;;;;;1493330;39;20028;-60
2021/05/25 05:43:38;;;;;;;4.53;1.15;;;;;;;;;;1493203;39;20032;-60
2021/05/25 05:44:40;;;;;;;4.95;1.23;;;;;;;;;;1493422;39;20027;-59
2021/05/25 05:45:41;;;;;;;3.85;0.90;;;;;;;;;;1493307;39;20035;-61
2021/05/25 05:46:42;;;;;;;3.50;1.10;;;;;;;;;;1492742;39;20031;-60
2021/05/25 05:47:44;;;;;;;4.70;1.00;;;;;;;;;;1492967;39;20028;-60
2021/05/25 05:48:45;;;;;;;3.47;1.30;;;;;;;;;;1493271;39;20335;-60
2021/05/25 05:49:46;;;;;;;3.40;0.93;;;;;;;;;;1493195;39;20071;-61
2021/05/25 05:50:47;;;;;;;3.35;1.10;;;;;;;;;;1493393;39;20027;-60
2021/05/25 05:51:49;;;;;;;3.35;0.90;;;;;;;;;;1493350;39;20047;-61
2021/05/25 05:52:50;;;;;;;5.47;1.40;;;;;;;;;;1493443;39;20085;-60
2021/05/25 05:53:51;;;;;;;2.42;0.75;;;;;;;;;;1493250;39;20062;-59
2021/05/25 05:54:52;;;;;;;2.75;0.95;;;;;;;;;;1493498;39;20028;-60
2021/05/25 05:55:53;;;;;;;3.38;1.20;;;;;;;;;;1493407;39;20268;-60
2021/05/25 05:56:54;;;;;;;2.75;0.95;;;;;;;;;;1493305;39;20032;-60
2021/05/25 05:57:56;;;;;;;4.75;1.20;;;;;;;;;;1493262;39;20036;-60
2021/05/25 05:58:57;;;;;;;2.63;1.05;;;;;;;;;;1493261;39;20437;-60
2021/05/25 05:59:59;;;;;;;3.35;0.90;;;;;;;;;;1493334;39;20058;-61
2021/05/25 06:01:00;;;;;;;4.38;1.10;;;;;;;;;;1493198;39;20032;-61
2021/05/25 06:02:01;;;;;;;5.95;1.08;;;;;;;;;;1493126;39;20068;-61
2021/05/25 06:03:02;;;;;;;3.80;1.15;;;;;;;;;;1493207;39;20024;-60
2021/05/25 06:04:04;;;;;;;3.63;1.10;;;;;;;;;;1493358;39;20093;-60
2021/05/25 06:05:06;;;;;;;4.25;1.02;;;;;;;;;;1493201;39;20339;-60
2021/05/25 06:06:08;;;;;;;5.05;1.08;;;;;;;;;;1493148;39;20116;-60
2021/05/25 06:07:09;;;;;;;3.83;0.85;;;;;;;;;;1493185;39;20035;-60
2021/05/25 06:08:10;;;;;;;2.95;0.93;;;;;;;;;;1493179;39;20024;-61
2021/05/25 06:09:11;;;;;;;5.55;1.10;;;;;;;;;;1493452;39;20024;-60
2021/05/25 06:10:13;;;;;;;5.45;1.27;;;;;;;;;;1493256;39;20295;-61
2021/05/25 06:11:14;;;;;;;3.25;0.95;;;;;;;;;;1493407;39;20028;-60